sensor_id;sensor_type;location;lat;lon;timestamp;P1;durP1;ratioP1;P2;durP2;ratioP2
51614;SDS011;37695;52.960;6.188;2022-12-18T00:00:45;48.60;;;26.27;;
51614;SDS011;37695;52.960;6.188;2022-12-18T00:03:12;49.17;;;25.25;;
51614;SDS011;37695;52.960;6.188;2022-12-18T00:05:48;47.58;;;25.20;;
51614;SDS011;37695;52.960;6.188;2022-12-18T00:08:15;46.97;;;23.10;;
51614;SDS011;37695;52.960;6.188;2022-12-18T00:10:41;44.92;;;21.48;;
51614;SDS011;37695;52.960;6.188;2022-12-18T00:13:06;42.20;;;22.52;;
51614;SDS011;37695;52.960;6.188;2022-12-18T00:15:36;44.83;;;24.13;;
51614;SDS011;37695;52.960;6.188;2022-12-18T00:18:03;45.78;;;24.63;;
51614;SDS011;37695;52.960;6.188;2022-12-18T00:20:28;49.78;;;23.50;;
51614;SDS011;37695;52.960;6.188;2022-12-18T00:22:54;46.22;;;23.75;;
51614;SDS011;37695;52.960;6.188;2022-12-18T00:25:20;45.35;;;23.30;;
51614;SDS011;37695;52.960;6.188;2022-12-18T00:27:46;47.05;;;23.67;;
51614;SDS011;37695;52.960;6.188;2022-12-18T00:30:12;44.80;;;23.05;;
51614;SDS011;37695;52.960;6.188;2022-12-18T00:32:38;43.80;;;23.50;;
51614;SDS011;37695;52.960;6.188;2022-12-18T00:35:04;50.47;;;23.92;;
51614;SDS011;37695;52.960;6.188;2022-12-18T00:37:30;49.58;;;23.60;;
51614;SDS011;37695;52.960;6.188;2022-12-18T00:39:58;45.42;;;22.90;;
51614;SDS011;37695;52.960;6.188;2022-12-18T00:42:23;50.75;;;25.45;;
51614;SDS011;37695;52.960;6.188;2022-12-18T00:45:07;41.38;;;21.80;;
51614;SDS011;37695;52.960;6.188;2022-12-18T00:47:33;47.17;;;21.92;;
51614;SDS011;37695;52.960;6.188;2022-12-18T00:49:59;38.58;;;21.33;;
51614;SDS011;37695;52.960;6.188;2022-12-18T00:52:24;41.97;;;21.90;;
51614;SDS011;37695;52.960;6.188;2022-12-18T00:54:50;43.15;;;22.42;;
51614;SDS011;37695;52.960;6.188;2022-12-18T00:57:15;40.17;;;21.48;;
51614;SDS011;37695;52.960;6.188;2022-12-18T00:59:41;39.95;;;21.15;;
51614;SDS011;37695;52.960;6.188;2022-12-18T01:02:06;42.97;;;21.38;;
51614;SDS011;37695;52.960;6.188;2022-12-18T01:04:32;41.25;;;21.50;;
51614;SDS011;37695;52.960;6.188;2022-12-18T01:06:58;39.67;;;20.75;;
51614;SDS011;37695;52.960;6.188;2022-12-18T01:09:23;42.78;;;22.17;;
51614;SDS011;37695;52.960;6.188;2022-12-18T01:11:49;44.00;;;22.48;;
51614;SDS011;37695;52.960;6.188;2022-12-18T01:14:15;43.63;;;20.38;;
51614;SDS011;37695;52.960;6.188;2022-12-18T01:16:40;38.78;;;23.00;;
51614;SDS011;37695;52.960;6.188;2022-12-18T01:19:06;40.00;;;19.48;;
51614;SDS011;37695;52.960;6.188;2022-12-18T01:21:32;37.13;;;19.38;;
51614;SDS011;37695;52.960;6.188;2022-12-18T01:23:58;40.22;;;21.55;;
51614;SDS011;37695;52.960;6.188;2022-12-18T01:26:24;41.80;;;20.77;;
51614;SDS011;37695;52.960;6.188;2022-12-18T01:28:50;37.40;;;20.10;;
51614;SDS011;37695;52.960;6.188;2022-12-18T01:31:21;38.85;;;19.98;;
51614;SDS011;37695;52.960;6.188;2022-12-18T01:33:54;39.47;;;20.15;;
51614;SDS011;37695;52.960;6.188;2022-12-18T01:36:24;36.65;;;20.02;;
51614;SDS011;37695;52.960;6.188;2022-12-18T01:38:55;44.13;;;22.08;;
51614;SDS011;37695;52.960;6.188;2022-12-18T01:41:22;37.17;;;20.00;;
51614;SDS011;37695;52.960;6.188;2022-12-18T01:43:52;42.22;;;22.20;;
51614;SDS011;37695;52.960;6.188;2022-12-18T01:46:20;41.97;;;21.67;;
51614;SDS011;37695;52.960;6.188;2022-12-18T01:48:51;37.13;;;20.83;;
51614;SDS011;37695;52.960;6.188;2022-12-18T01:51:20;39.83;;;21.00;;
51614;SDS011;37695;52.960;6.188;2022-12-18T01:53:46;41.33;;;21.33;;
51614;SDS011;37695;52.960;6.188;2022-12-18T01:56:15;39.85;;;19.98;;
51614;SDS011;37695;52.960;6.188;2022-12-18T02:01:23;40.70;;;21.15;;
51614;SDS011;37695;52.960;6.188;2022-12-18T02:03:50;46.40;;;21.80;;
51614;SDS011;37695;52.960;6.188;2022-12-18T02:06:19;43.25;;;20.83;;
51614;SDS011;37695;52.960;6.188;2022-12-18T02:08:56;40.17;;;21.25;;
51614;SDS011;37695;52.960;6.188;2022-12-18T02:14:12;39.30;;;20.27;;
51614;SDS011;37695;52.960;6.188;2022-12-18T02:17:03;41.80;;;21.52;;
51614;SDS011;37695;52.960;6.188;2022-12-18T02:19:43;37.28;;;20.55;;
51614;SDS011;37695;52.960;6.188;2022-12-18T02:25:16;38.88;;;19.85;;
51614;SDS011;37695;52.960;6.188;2022-12-18T02:27:55;37.60;;;21.48;;
51614;SDS011;37695;52.960;6.188;2022-12-18T02:30:23;42.40;;;21.48;;
51614;SDS011;37695;52.960;6.188;2022-12-18T02:32:51;35.53;;;20.67;;
51614;SDS011;37695;52.960;6.188;2022-12-18T02:35:20;41.30;;;20.55;;
51614;SDS011;37695;52.960;6.188;2022-12-18T02:37:49;43.92;;;22.45;;
51614;SDS011;37695;52.960;6.188;2022-12-18T02:40:15;39.15;;;22.67;;
51614;SDS011;37695;52.960;6.188;2022-12-18T02:42:43;42.72;;;22.25;;
51614;SDS011;37695;52.960;6.188;2022-12-18T02:45:09;46.33;;;22.33;;
51614;SDS011;37695;52.960;6.188;2022-12-18T02:47:39;40.85;;;22.65;;
51614;SDS011;37695;52.960;6.188;2022-12-18T02:50:28;42.35;;;23.15;;
51614;SDS011;37695;52.960;6.188;2022-12-18T02:56:02;43.10;;;22.10;;
51614;SDS011;37695;52.960;6.188;2022-12-18T03:03:56;44.30;;;22.27;;
51614;SDS011;37695;52.960;6.188;2022-12-18T03:06:43;41.10;;;22.05;;
51614;SDS011;37695;52.960;6.188;2022-12-18T03:09:22;41.53;;;22.63;;
51614;SDS011;37695;52.960;6.188;2022-12-18T03:11:56;39.10;;;21.20;;
51614;SDS011;37695;52.960;6.188;2022-12-18T03:14:47;43.53;;;19.88;;
51614;SDS011;37695;52.960;6.188;2022-12-18T03:17:28;38.05;;;21.10;;
51614;SDS011;37695;52.960;6.188;2022-12-18T03:19:58;40.75;;;21.90;;
51614;SDS011;37695;52.960;6.188;2022-12-18T03:22:32;40.00;;;21.08;;
51614;SDS011;37695;52.960;6.188;2022-12-18T03:25:00;44.17;;;23.90;;
51614;SDS011;37695;52.960;6.188;2022-12-18T03:27:28;39.58;;;20.85;;
51614;SDS011;37695;52.960;6.188;2022-12-18T03:30:02;40.15;;;20.52;;
51614;SDS011;37695;52.960;6.188;2022-12-18T03:32:47;40.22;;;19.30;;
51614;SDS011;37695;52.960;6.188;2022-12-18T03:35:20;39.03;;;20.10;;
51614;SDS011;37695;52.960;6.188;2022-12-18T03:37:48;43.78;;;21.42;;
51614;SDS011;37695;52.960;6.188;2022-12-18T03:40:14;40.95;;;22.33;;
51614;SDS011;37695;52.960;6.188;2022-12-18T03:42:43;35.75;;;19.65;;
51614;SDS011;37695;52.960;6.188;2022-12-18T03:45:22;40.10;;;21.13;;
51614;SDS011;37695;52.960;6.188;2022-12-18T03:48:01;37.60;;;19.40;;
51614;SDS011;37695;52.960;6.188;2022-12-18T03:55:46;38.88;;;18.80;;
51614;SDS011;37695;52.960;6.188;2022-12-18T03:58:15;33.85;;;18.75;;
51614;SDS011;37695;52.960;6.188;2022-12-18T04:00:44;41.65;;;21.27;;
51614;SDS011;37695;52.960;6.188;2022-12-18T04:03:12;35.88;;;18.30;;
51614;SDS011;37695;52.960;6.188;2022-12-18T04:05:39;35.75;;;18.58;;
51614;SDS011;37695;52.960;6.188;2022-12-18T04:08:07;33.30;;;17.45;;
51614;SDS011;37695;52.960;6.188;2022-12-18T04:10:33;32.58;;;17.00;;
51614;SDS011;37695;52.960;6.188;2022-12-18T04:13:00;31.83;;;19.27;;
51614;SDS011;37695;52.960;6.188;2022-12-18T04:15:25;33.13;;;18.00;;
51614;SDS011;37695;52.960;6.188;2022-12-18T04:17:51;33.55;;;17.55;;
51614;SDS011;37695;52.960;6.188;2022-12-18T04:20:17;34.53;;;18.38;;
51614;SDS011;37695;52.960;6.188;2022-12-18T04:22:43;33.42;;;17.55;;
51614;SDS011;37695;52.960;6.188;2022-12-18T04:25:08;35.20;;;18.00;;
51614;SDS011;37695;52.960;6.188;2022-12-18T04:27:34;36.40;;;17.50;;
51614;SDS011;37695;52.960;6.188;2022-12-18T04:30:00;36.50;;;17.98;;
51614;SDS011;37695;52.960;6.188;2022-12-18T04:32:25;32.70;;;17.40;;
51614;SDS011;37695;52.960;6.188;2022-12-18T04:34:51;31.88;;;17.85;;
51614;SDS011;37695;52.960;6.188;2022-12-18T04:37:17;31.73;;;16.67;;
51614;SDS011;37695;52.960;6.188;2022-12-18T04:39:42;32.03;;;16.02;;
51614;SDS011;37695;52.960;6.188;2022-12-18T04:42:08;33.08;;;15.80;;
51614;SDS011;37695;52.960;6.188;2022-12-18T04:44:33;28.88;;;15.20;;
51614;SDS011;37695;52.960;6.188;2022-12-18T04:46:59;31.13;;;16.48;;
51614;SDS011;37695;52.960;6.188;2022-12-18T04:49:24;28.65;;;16.77;;
51614;SDS011;37695;52.960;6.188;2022-12-18T04:51:50;32.17;;;15.68;;
51614;SDS011;37695;52.960;6.188;2022-12-18T04:54:19;29.42;;;15.05;;
51614;SDS011;37695;52.960;6.188;2022-12-18T04:56:45;30.85;;;15.35;;
51614;SDS011;37695;52.960;6.188;2022-12-18T04:59:11;32.03;;;15.95;;
51614;SDS011;37695;52.960;6.188;2022-12-18T05:01:36;26.80;;;15.68;;
51614;SDS011;37695;52.960;6.188;2022-12-18T05:04:02;30.88;;;16.42;;
51614;SDS011;37695;52.960;6.188;2022-12-18T05:06:28;32.78;;;16.67;;
51614;SDS011;37695;52.960;6.188;2022-12-18T05:08:54;35.30;;;17.08;;
51614;SDS011;37695;52.960;6.188;2022-12-18T05:11:19;33.90;;;16.77;;
51614;SDS011;37695;52.960;6.188;2022-12-18T05:13:45;31.20;;;16.75;;
51614;SDS011;37695;52.960;6.188;2022-12-18T05:16:11;28.73;;;16.23;;
51614;SDS011;37695;52.960;6.188;2022-12-18T05:18:37;30.45;;;16.33;;
51614;SDS011;37695;52.960;6.188;2022-12-18T05:21:03;32.13;;;16.40;;
51614;SDS011;37695;52.960;6.188;2022-12-18T05:23:29;33.65;;;15.90;;
51614;SDS011;37695;52.960;6.188;2022-12-18T05:25:56;32.15;;;16.10;;
51614;SDS011;37695;52.960;6.188;2022-12-18T05:28:24;35.10;;;16.08;;
51614;SDS011;37695;52.960;6.188;2022-12-18T05:30:52;31.20;;;15.77;;
51614;SDS011;37695;52.960;6.188;2022-12-18T05:33:20;30.70;;;16.60;;
51614;SDS011;37695;52.960;6.188;2022-12-18T05:35:54;30.10;;;14.57;;
51614;SDS011;37695;52.960;6.188;2022-12-18T05:38:21;31.75;;;16.10;;
51614;SDS011;37695;52.960;6.188;2022-12-18T05:40:48;29.95;;;15.70;;
51614;SDS011;37695;52.960;6.188;2022-12-18T05:43:14;31.05;;;15.73;;
51614;SDS011;37695;52.960;6.188;2022-12-18T05:45:40;28.98;;;15.43;;
51614;SDS011;37695;52.960;6.188;2022-12-18T05:48:06;35.13;;;16.85;;
51614;SDS011;37695;52.960;6.188;2022-12-18T05:50:39;33.63;;;16.27;;
51614;SDS011;37695;52.960;6.188;2022-12-18T05:53:07;31.02;;;15.82;;
51614;SDS011;37695;52.960;6.188;2022-12-18T05:55:36;28.00;;;14.40;;
51614;SDS011;37695;52.960;6.188;2022-12-18T05:58:04;31.90;;;14.75;;
51614;SDS011;37695;52.960;6.188;2022-12-18T06:00:31;32.40;;;15.25;;
51614;SDS011;37695;52.960;6.188;2022-12-18T06:02:58;27.55;;;14.13;;
51614;SDS011;37695;52.960;6.188;2022-12-18T06:05:24;33.65;;;16.25;;
51614;SDS011;37695;52.960;6.188;2022-12-18T06:07:50;31.75;;;15.52;;
51614;SDS011;37695;52.960;6.188;2022-12-18T06:10:16;28.20;;;14.90;;
51614;SDS011;37695;52.960;6.188;2022-12-18T06:12:41;25.92;;;14.27;;
51614;SDS011;37695;52.960;6.188;2022-12-18T06:15:07;29.70;;;14.73;;
51614;SDS011;37695;52.960;6.188;2022-12-18T06:17:33;26.58;;;13.82;;
51614;SDS011;37695;52.960;6.188;2022-12-18T06:19:59;30.38;;;15.35;;
51614;SDS011;37695;52.960;6.188;2022-12-18T06:22:26;30.70;;;15.30;;
51614;SDS011;37695;52.960;6.188;2022-12-18T06:24:52;29.45;;;14.80;;
51614;SDS011;37695;52.960;6.188;2022-12-18T06:27:18;31.92;;;14.32;;
51614;SDS011;37695;52.960;6.188;2022-12-18T06:29:44;27.63;;;14.63;;
51614;SDS011;37695;52.960;6.188;2022-12-18T06:32:10;29.00;;;15.18;;
51614;SDS011;37695;52.960;6.188;2022-12-18T06:34:39;29.60;;;14.57;;
51614;SDS011;37695;52.960;6.188;2022-12-18T06:37:05;27.38;;;13.90;;
51614;SDS011;37695;52.960;6.188;2022-12-18T06:39:30;32.13;;;15.18;;
51614;SDS011;37695;52.960;6.188;2022-12-18T06:41:56;28.33;;;13.57;;
51614;SDS011;37695;52.960;6.188;2022-12-18T06:44:21;26.58;;;15.05;;
51614;SDS011;37695;52.960;6.188;2022-12-18T06:46:47;29.05;;;14.13;;
51614;SDS011;37695;52.960;6.188;2022-12-18T06:49:12;29.15;;;13.98;;
51614;SDS011;37695;52.960;6.188;2022-12-18T06:51:38;24.10;;;12.48;;
51614;SDS011;37695;52.960;6.188;2022-12-18T06:54:04;26.58;;;13.35;;
51614;SDS011;37695;52.960;6.188;2022-12-18T06:56:29;24.92;;;13.07;;
51614;SDS011;37695;52.960;6.188;2022-12-18T06:58:55;26.85;;;13.25;;
51614;SDS011;37695;52.960;6.188;2022-12-18T07:01:21;26.70;;;13.15;;
51614;SDS011;37695;52.960;6.188;2022-12-18T07:03:47;28.10;;;14.05;;
51614;SDS011;37695;52.960;6.188;2022-12-18T07:06:18;28.10;;;13.75;;
51614;SDS011;37695;52.960;6.188;2022-12-18T07:08:45;26.13;;;12.90;;
51614;SDS011;37695;52.960;6.188;2022-12-18T07:11:12;24.65;;;13.02;;
51614;SDS011;37695;52.960;6.188;2022-12-18T07:13:38;26.45;;;15.15;;
51614;SDS011;37695;52.960;6.188;2022-12-18T07:16:06;27.45;;;13.55;;
51614;SDS011;37695;52.960;6.188;2022-12-18T07:18:34;27.08;;;14.07;;
51614;SDS011;37695;52.960;6.188;2022-12-18T07:21:04;24.80;;;13.43;;
51614;SDS011;37695;52.960;6.188;2022-12-18T07:23:31;27.00;;;13.05;;
51614;SDS011;37695;52.960;6.188;2022-12-18T07:26:05;28.35;;;13.63;;
51614;SDS011;37695;52.960;6.188;2022-12-18T07:28:32;23.23;;;12.40;;
51614;SDS011;37695;52.960;6.188;2022-12-18T07:31:02;27.38;;;13.70;;
51614;SDS011;37695;52.960;6.188;2022-12-18T07:33:28;26.80;;;12.60;;
51614;SDS011;37695;52.960;6.188;2022-12-18T07:35:54;26.60;;;12.43;;
51614;SDS011;37695;52.960;6.188;2022-12-18T07:38:20;24.35;;;13.07;;
51614;SDS011;37695;52.960;6.188;2022-12-18T07:40:45;26.38;;;13.02;;
51614;SDS011;37695;52.960;6.188;2022-12-18T07:43:11;23.38;;;12.38;;
51614;SDS011;37695;52.960;6.188;2022-12-18T07:45:36;25.88;;;13.15;;
51614;SDS011;37695;52.960;6.188;2022-12-18T07:48:02;25.23;;;12.35;;
51614;SDS011;37695;52.960;6.188;2022-12-18T07:50:28;22.80;;;12.27;;
51614;SDS011;37695;52.960;6.188;2022-12-18T07:52:53;25.77;;;12.95;;
51614;SDS011;37695;52.960;6.188;2022-12-18T07:55:19;22.70;;;12.85;;
51614;SDS011;37695;52.960;6.188;2022-12-18T07:57:44;26.88;;;12.73;;
51614;SDS011;37695;52.960;6.188;2022-12-18T08:00:10;21.42;;;11.85;;
51614;SDS011;37695;52.960;6.188;2022-12-18T08:02:37;24.20;;;12.52;;
51614;SDS011;37695;52.960;6.188;2022-12-18T08:05:03;22.13;;;11.50;;
51614;SDS011;37695;52.960;6.188;2022-12-18T08:07:28;21.27;;;11.77;;
51614;SDS011;37695;52.960;6.188;2022-12-18T08:09:54;21.95;;;11.32;;
51614;SDS011;37695;52.960;6.188;2022-12-18T08:12:19;20.42;;;12.35;;
51614;SDS011;37695;52.960;6.188;2022-12-18T08:14:45;24.60;;;12.00;;
51614;SDS011;37695;52.960;6.188;2022-12-18T08:17:11;21.95;;;11.73;;
51614;SDS011;37695;52.960;6.188;2022-12-18T08:19:36;23.58;;;12.70;;
51614;SDS011;37695;52.960;6.188;2022-12-18T08:22:02;20.40;;;12.00;;
51614;SDS011;37695;52.960;6.188;2022-12-18T08:24:27;22.83;;;12.70;;
51614;SDS011;37695;52.960;6.188;2022-12-18T08:26:53;19.35;;;11.02;;
51614;SDS011;37695;52.960;6.188;2022-12-18T08:29:18;19.38;;;11.52;;
51614;SDS011;37695;52.960;6.188;2022-12-18T08:31:44;18.98;;;11.23;;
51614;SDS011;37695;52.960;6.188;2022-12-18T08:34:10;23.48;;;12.52;;
51614;SDS011;37695;52.960;6.188;2022-12-18T08:36:36;21.10;;;11.82;;
51614;SDS011;37695;52.960;6.188;2022-12-18T08:39:01;19.23;;;11.38;;
51614;SDS011;37695;52.960;6.188;2022-12-18T08:41:27;20.38;;;11.43;;
51614;SDS011;37695;52.960;6.188;2022-12-18T08:43:52;21.65;;;12.05;;
51614;SDS011;37695;52.960;6.188;2022-12-18T08:46:37;20.98;;;11.10;;
51614;SDS011;37695;52.960;6.188;2022-12-18T08:49:05;20.50;;;11.48;;
51614;SDS011;37695;52.960;6.188;2022-12-18T08:51:32;22.13;;;11.93;;
51614;SDS011;37695;52.960;6.188;2022-12-18T08:53:59;20.33;;;11.27;;
51614;SDS011;37695;52.960;6.188;2022-12-18T08:56:25;24.00;;;12.35;;
51614;SDS011;37695;52.960;6.188;2022-12-18T08:58:51;19.38;;;11.40;;
51614;SDS011;37695;52.960;6.188;2022-12-18T09:01:18;19.00;;;11.07;;
51614;SDS011;37695;52.960;6.188;2022-12-18T09:03:44;21.02;;;11.35;;
51614;SDS011;37695;52.960;6.188;2022-12-18T09:06:13;17.90;;;11.77;;
51614;SDS011;37695;52.960;6.188;2022-12-18T09:08:41;19.17;;;11.55;;
51614;SDS011;37695;52.960;6.188;2022-12-18T09:11:12;18.90;;;10.45;;
51614;SDS011;37695;52.960;6.188;2022-12-18T09:13:39;21.85;;;11.55;;
51614;SDS011;37695;52.960;6.188;2022-12-18T09:16:05;18.67;;;11.15;;
51614;SDS011;37695;52.960;6.188;2022-12-18T09:18:31;17.50;;;10.48;;
51614;SDS011;37695;52.960;6.188;2022-12-18T09:20:56;17.52;;;11.38;;
51614;SDS011;37695;52.960;6.188;2022-12-18T09:23:22;19.70;;;11.38;;
51614;SDS011;37695;52.960;6.188;2022-12-18T09:25:48;19.52;;;12.00;;
51614;SDS011;37695;52.960;6.188;2022-12-18T09:28:14;18.40;;;11.70;;
51614;SDS011;37695;52.960;6.188;2022-12-18T09:30:42;18.52;;;11.48;;
51614;SDS011;37695;52.960;6.188;2022-12-18T09:33:09;18.92;;;11.35;;
51614;SDS011;37695;52.960;6.188;2022-12-18T09:35:38;16.38;;;10.60;;
51614;SDS011;37695;52.960;6.188;2022-12-18T09:38:05;21.85;;;12.02;;
51614;SDS011;37695;52.960;6.188;2022-12-18T09:40:36;17.60;;;11.25;;
51614;SDS011;37695;52.960;6.188;2022-12-18T09:43:06;17.00;;;10.85;;
51614;SDS011;37695;52.960;6.188;2022-12-18T09:45:41;19.92;;;11.18;;
51614;SDS011;37695;52.960;6.188;2022-12-18T09:48:10;20.85;;;10.68;;
51614;SDS011;37695;52.960;6.188;2022-12-18T09:50:45;14.63;;;9.57;;
51614;SDS011;37695;52.960;6.188;2022-12-18T09:53:14;16.10;;;10.57;;
51614;SDS011;37695;52.960;6.188;2022-12-18T09:55:45;18.40;;;9.95;;
51614;SDS011;37695;52.960;6.188;2022-12-18T09:58:17;16.98;;;10.95;;
51614;SDS011;37695;52.960;6.188;2022-12-18T10:00:53;17.27;;;10.43;;
51614;SDS011;37695;52.960;6.188;2022-12-18T10:03:19;16.73;;;11.13;;
51614;SDS011;37695;52.960;6.188;2022-12-18T10:05:53;17.15;;;10.55;;
51614;SDS011;37695;52.960;6.188;2022-12-18T10:16:29;17.10;;;10.77;;
51614;SDS011;37695;52.960;6.188;2022-12-18T10:19:17;16.60;;;10.18;;
51614;SDS011;37695;52.960;6.188;2022-12-18T10:24:49;15.57;;;9.32;;
51614;SDS011;37695;52.960;6.188;2022-12-18T10:27:20;14.68;;;9.35;;
51614;SDS011;37695;52.960;6.188;2022-12-18T10:29:49;16.42;;;9.43;;
51614;SDS011;37695;52.960;6.188;2022-12-18T10:32:15;14.65;;;9.40;;
51614;SDS011;37695;52.960;6.188;2022-12-18T10:34:54;15.23;;;9.93;;
51614;SDS011;37695;52.960;6.188;2022-12-18T10:37:23;16.92;;;10.48;;
51614;SDS011;37695;52.960;6.188;2022-12-18T10:42:33;15.57;;;9.18;;
51614;SDS011;37695;52.960;6.188;2022-12-18T10:45:17;16.15;;;9.13;;
51614;SDS011;37695;52.960;6.188;2022-12-18T10:47:46;15.75;;;9.60;;
51614;SDS011;37695;52.960;6.188;2022-12-18T10:50:23;14.40;;;9.10;;
51614;SDS011;37695;52.960;6.188;2022-12-18T10:52:57;14.07;;;8.93;;
51614;SDS011;37695;52.960;6.188;2022-12-18T10:55:32;13.27;;;8.52;;
51614;SDS011;37695;52.960;6.188;2022-12-18T11:01:03;14.43;;;9.13;;
51614;SDS011;37695;52.960;6.188;2022-12-18T11:04:08;13.13;;;8.60;;
51614;SDS011;37695;52.960;6.188;2022-12-18T11:06:32;13.75;;;7.82;;
51614;SDS011;37695;52.960;6.188;2022-12-18T11:09:04;12.38;;;8.65;;
51614;SDS011;37695;52.960;6.188;2022-12-18T11:11:42;13.95;;;8.50;;
51614;SDS011;37695;52.960;6.188;2022-12-18T11:14:21;13.55;;;8.65;;
51614;SDS011;37695;52.960;6.188;2022-12-18T11:16:55;14.40;;;8.38;;
51614;SDS011;37695;52.960;6.188;2022-12-18T11:21:59;12.93;;;8.05;;
51614;SDS011;37695;52.960;6.188;2022-12-18T11:24:31;12.07;;;7.45;;
51614;SDS011;37695;52.960;6.188;2022-12-18T11:26:59;11.98;;;7.82;;
51614;SDS011;37695;52.960;6.188;2022-12-18T11:29:34;12.00;;;8.10;;
51614;SDS011;37695;52.960;6.188;2022-12-18T11:32:20;13.43;;;7.60;;
51614;SDS011;37695;52.960;6.188;2022-12-18T11:35:20;12.23;;;7.70;;
51614;SDS011;37695;52.960;6.188;2022-12-18T11:37:50;11.73;;;6.95;;
51614;SDS011;37695;52.960;6.188;2022-12-18T11:40:30;11.73;;;7.13;;
51614;SDS011;37695;52.960;6.188;2022-12-18T11:43:10;13.68;;;8.02;;
51614;SDS011;37695;52.960;6.188;2022-12-18T11:45:52;11.45;;;6.93;;
51614;SDS011;37695;52.960;6.188;2022-12-18T11:48:22;11.50;;;7.47;;
51614;SDS011;37695;52.960;6.188;2022-12-18T11:50:53;11.57;;;7.97;;
51614;SDS011;37695;52.960;6.188;2022-12-18T11:53:21;11.23;;;6.93;;
51614;SDS011;37695;52.960;6.188;2022-12-18T11:55:56;11.52;;;7.25;;
51614;SDS011;37695;52.960;6.188;2022-12-18T12:14:43;10.35;;;6.78;;
51614;SDS011;37695;52.960;6.188;2022-12-18T12:17:40;11.30;;;6.82;;
51614;SDS011;37695;52.960;6.188;2022-12-18T12:20:14;11.50;;;6.72;;
51614;SDS011;37695;52.960;6.188;2022-12-18T12:22:58;9.25;;;5.82;;
51614;SDS011;37695;52.960;6.188;2022-12-18T12:25:41;11.73;;;6.65;;
51614;SDS011;37695;52.960;6.188;2022-12-18T12:31:15;10.70;;;6.10;;
51614;SDS011;37695;52.960;6.188;2022-12-18T12:34:17;9.27;;;5.60;;
51614;SDS011;37695;52.960;6.188;2022-12-18T12:40:03;8.23;;;5.20;;
51614;SDS011;37695;52.960;6.188;2022-12-18T12:42:33;8.20;;;5.90;;
51614;SDS011;37695;52.960;6.188;2022-12-18T12:45:22;9.95;;;5.82;;
51614;SDS011;37695;52.960;6.188;2022-12-18T12:48:05;8.25;;;5.00;;
51614;SDS011;37695;52.960;6.188;2022-12-18T12:50:40;9.00;;;5.05;;
51614;SDS011;37695;52.960;6.188;2022-12-18T12:53:07;9.70;;;5.78;;
51614;SDS011;37695;52.960;6.188;2022-12-18T12:55:39;8.48;;;4.53;;
51614;SDS011;37695;52.960;6.188;2022-12-18T13:00:59;7.90;;;5.22;;
51614;SDS011;37695;52.960;6.188;2022-12-18T13:09:07;8.93;;;5.03;;
51614;SDS011;37695;52.960;6.188;2022-12-18T13:11:42;8.18;;;4.75;;
51614;SDS011;37695;52.960;6.188;2022-12-18T13:14:29;7.90;;;4.53;;
51614;SDS011;37695;52.960;6.188;2022-12-18T13:17:17;9.05;;;4.82;;
51614;SDS011;37695;52.960;6.188;2022-12-18T13:20:04;9.00;;;4.68;;
51614;SDS011;37695;52.960;6.188;2022-12-18T13:22:39;7.60;;;4.88;;
51614;SDS011;37695;52.960;6.188;2022-12-18T13:28:07;6.47;;;4.10;;
51614;SDS011;37695;52.960;6.188;2022-12-18T13:40:57;6.50;;;4.00;;
51614;SDS011;37695;52.960;6.188;2022-12-18T13:43:28;6.50;;;3.83;;
51614;SDS011;37695;52.960;6.188;2022-12-18T13:48:53;7.22;;;4.40;;
51614;SDS011;37695;52.960;6.188;2022-12-18T13:51:31;7.80;;;4.60;;
51614;SDS011;37695;52.960;6.188;2022-12-18T13:53:59;7.43;;;3.97;;
51614;SDS011;37695;52.960;6.188;2022-12-18T13:56:28;7.10;;;4.03;;
51614;SDS011;37695;52.960;6.188;2022-12-18T14:01:58;8.90;;;4.97;;
51614;SDS011;37695;52.960;6.188;2022-12-18T14:04:33;8.75;;;4.80;;
51614;SDS011;37695;52.960;6.188;2022-12-18T14:07:04;6.95;;;4.22;;
51614;SDS011;37695;52.960;6.188;2022-12-18T14:09:36;6.10;;;4.05;;
51614;SDS011;37695;52.960;6.188;2022-12-18T14:12:05;8.07;;;4.53;;
51614;SDS011;37695;52.960;6.188;2022-12-18T14:14:55;7.22;;;4.25;;
51614;SDS011;37695;52.960;6.188;2022-12-18T14:17:21;6.78;;;4.65;;
51614;SDS011;37695;52.960;6.188;2022-12-18T14:19:48;7.47;;;4.25;;
51614;SDS011;37695;52.960;6.188;2022-12-18T14:22:23;6.97;;;4.38;;
51614;SDS011;37695;52.960;6.188;2022-12-18T14:25:05;8.57;;;4.60;;
51614;SDS011;37695;52.960;6.188;2022-12-18T14:27:37;8.63;;;5.07;;
51614;SDS011;37695;52.960;6.188;2022-12-18T14:33:08;8.02;;;4.50;;
51614;SDS011;37695;52.960;6.188;2022-12-18T14:35:40;9.30;;;4.53;;
51614;SDS011;37695;52.960;6.188;2022-12-18T14:40:55;9.32;;;5.00;;
51614;SDS011;37695;52.960;6.188;2022-12-18T14:43:26;6.75;;;4.68;;
51614;SDS011;37695;52.960;6.188;2022-12-18T14:45:53;7.55;;;4.78;;
51614;SDS011;37695;52.960;6.188;2022-12-18T14:50:53;6.95;;;4.32;;
51614;SDS011;37695;52.960;6.188;2022-12-18T14:56:13;10.43;;;4.78;;
51614;SDS011;37695;52.960;6.188;2022-12-18T14:59:04;9.90;;;5.47;;
51614;SDS011;37695;52.960;6.188;2022-12-18T15:01:38;6.75;;;4.40;;
51614;SDS011;37695;52.960;6.188;2022-12-18T15:04:33;7.70;;;4.65;;
51614;SDS011;37695;52.960;6.188;2022-12-18T15:07:16;9.05;;;5.20;;
51614;SDS011;37695;52.960;6.188;2022-12-18T15:09:43;7.97;;;4.72;;
51614;SDS011;37695;52.960;6.188;2022-12-18T15:12:33;7.68;;;4.68;;
51614;SDS011;37695;52.960;6.188;2022-12-18T15:14:58;8.13;;;4.78;;
51614;SDS011;37695;52.960;6.188;2022-12-18T15:17:24;8.48;;;4.93;;
51614;SDS011;37695;52.960;6.188;2022-12-18T15:19:58;8.73;;;4.85;;
51614;SDS011;37695;52.960;6.188;2022-12-18T15:22:34;8.77;;;4.80;;
51614;SDS011;37695;52.960;6.188;2022-12-18T15:25:01;8.43;;;5.03;;
51614;SDS011;37695;52.960;6.188;2022-12-18T15:27:45;8.85;;;5.13;;
51614;SDS011;37695;52.960;6.188;2022-12-18T15:30:16;8.50;;;4.85;;
51614;SDS011;37695;52.960;6.188;2022-12-18T15:32:44;8.68;;;4.78;;
51614;SDS011;37695;52.960;6.188;2022-12-18T15:37:37;9.23;;;4.90;;
51614;SDS011;37695;52.960;6.188;2022-12-18T15:40:03;8.43;;;5.13;;
51614;SDS011;37695;52.960;6.188;2022-12-18T15:42:29;8.57;;;5.03;;
51614;SDS011;37695;52.960;6.188;2022-12-18T15:45:13;8.70;;;5.03;;
51614;SDS011;37695;52.960;6.188;2022-12-18T15:47:39;8.23;;;5.30;;
51614;SDS011;37695;52.960;6.188;2022-12-18T15:50:06;8.57;;;5.03;;
51614;SDS011;37695;52.960;6.188;2022-12-18T15:52:40;7.88;;;4.80;;
51614;SDS011;37695;52.960;6.188;2022-12-18T15:55:12;7.82;;;4.95;;
51614;SDS011;37695;52.960;6.188;2022-12-18T15:57:58;8.63;;;5.50;;
51614;SDS011;37695;52.960;6.188;2022-12-18T16:00:23;8.10;;;4.75;;
51614;SDS011;37695;52.960;6.188;2022-12-18T16:02:49;7.68;;;5.07;;
51614;SDS011;37695;52.960;6.188;2022-12-18T16:05:15;7.95;;;4.97;;
51614;SDS011;37695;52.960;6.188;2022-12-18T16:07:42;8.10;;;5.07;;
51614;SDS011;37695;52.960;6.188;2022-12-18T16:10:08;9.43;;;5.40;;
51614;SDS011;37695;52.960;6.188;2022-12-18T16:12:35;9.23;;;5.82;;
51614;SDS011;37695;52.960;6.188;2022-12-18T16:15:01;9.88;;;5.43;;
51614;SDS011;37695;52.960;6.188;2022-12-18T16:17:28;8.52;;;5.60;;
51614;SDS011;37695;52.960;6.188;2022-12-18T16:19:54;8.77;;;5.10;;
51614;SDS011;37695;52.960;6.188;2022-12-18T16:22:20;8.98;;;5.30;;
51614;SDS011;37695;52.960;6.188;2022-12-18T16:24:51;9.75;;;5.57;;
51614;SDS011;37695;52.960;6.188;2022-12-18T16:27:18;7.95;;;5.43;;
51614;SDS011;37695;52.960;6.188;2022-12-18T16:29:45;9.10;;;5.80;;